sensor_id;sensor_type;location;lat;lon;timestamp;P1;durP1;ratioP1;P2;durP2;ratioP2
19043;SDS011;9654;52.302;8.120;2024-02-15T00:02:10;32.93;;;19.53;;
19043;SDS011;9654;52.302;8.120;2024-02-15T00:04:37;34.43;;;19.13;;
19043;SDS011;9654;52.302;8.120;2024-02-15T00:07:05;34.80;;;19.47;;
19043;SDS011;9654;52.302;8.120;2024-02-15T00:09:32;34.43;;;19.07;;
19043;SDS011;9654;52.302;8.120;2024-02-15T00:12:00;35.47;;;19.07;;
19043;SDS011;9654;52.302;8.120;2024-02-15T00:14:27;38.13;;;19.93;;
19043;SDS011;9654;52.302;8.120;2024-02-15T00:16:54;33.87;;;20.13;;
19043;SDS011;9654;52.302;8.120;2024-02-15T00:19:21;32.50;;;19.47;;
19043;SDS011;9654;52.302;8.120;2024-02-15T00:21:48;41.17;;;21.33;;
19043;SDS011;9654;52.302;8.120;2024-02-15T00:24:18;38.57;;;20.37;;
19043;SDS011;9654;52.302;8.120;2024-02-15T00:26:45;41.43;;;20.37;;
19043;SDS011;9654;52.302;8.120;2024-02-15T00:29:13;40.90;;;20.47;;
19043;SDS011;9654;52.302;8.120;2024-02-15T00:31:40;36.63;;;20.27;;
19043;SDS011;9654;52.302;8.120;2024-02-15T00:34:06;32.73;;;19.30;;
19043;SDS011;9654;52.302;8.120;2024-02-15T00:36:34;37.30;;;20.80;;
19043;SDS011;9654;52.302;8.120;2024-02-15T00:39:01;35.33;;;19.27;;
19043;SDS011;9654;52.302;8.120;2024-02-15T00:41:31;35.57;;;21.27;;
19043;SDS011;9654;52.302;8.120;2024-02-15T00:43:58;34.27;;;19.43;;
19043;SDS011;9654;52.302;8.120;2024-02-15T00:46:25;41.07;;;21.70;;
19043;SDS011;9654;52.302;8.120;2024-02-15T00:48:54;31.00;;;19.10;;
19043;SDS011;9654;52.302;8.120;2024-02-15T00:51:21;34.70;;;19.17;;
19043;SDS011;9654;52.302;8.120;2024-02-15T00:53:49;29.17;;;18.33;;
19043;SDS011;9654;52.302;8.120;2024-02-15T00:56:16;33.23;;;18.77;;
19043;SDS011;9654;52.302;8.120;2024-02-15T00:58:45;29.30;;;17.50;;
19043;SDS011;9654;52.302;8.120;2024-02-15T01:01:11;29.27;;;17.03;;
19043;SDS011;9654;52.302;8.120;2024-02-15T01:03:38;29.90;;;17.80;;
19043;SDS011;9654;52.302;8.120;2024-02-15T01:06:05;29.17;;;17.47;;
19043;SDS011;9654;52.302;8.120;2024-02-15T01:08:32;29.20;;;16.30;;
19043;SDS011;9654;52.302;8.120;2024-02-15T01:11:00;32.27;;;16.20;;
19043;SDS011;9654;52.302;8.120;2024-02-15T01:13:26;27.03;;;15.80;;
19043;SDS011;9654;52.302;8.120;2024-02-15T01:15:55;25.00;;;15.27;;
19043;SDS011;9654;52.302;8.120;2024-02-15T01:18:22;25.30;;;15.30;;
19043;SDS011;9654;52.302;8.120;2024-02-15T01:20:49;26.53;;;14.90;;
19043;SDS011;9654;52.302;8.120;2024-02-15T01:23:17;23.10;;;14.90;;
19043;SDS011;9654;52.302;8.120;2024-02-15T01:25:45;23.43;;;14.47;;
19043;SDS011;9654;52.302;8.120;2024-02-15T01:28:12;23.23;;;14.53;;
19043;SDS011;9654;52.302;8.120;2024-02-15T01:30:39;27.67;;;15.10;;
19043;SDS011;9654;52.302;8.120;2024-02-15T01:33:10;26.80;;;15.83;;
19043;SDS011;9654;52.302;8.120;2024-02-15T01:35:37;23.03;;;14.27;;
19043;SDS011;9654;52.302;8.120;2024-02-15T01:38:04;24.60;;;14.57;;
19043;SDS011;9654;52.302;8.120;2024-02-15T01:40:31;31.70;;;17.53;;
19043;SDS011;9654;52.302;8.120;2024-02-15T01:43:00;25.90;;;15.03;;
19043;SDS011;9654;52.302;8.120;2024-02-15T01:45:27;30.20;;;15.30;;
19043;SDS011;9654;52.302;8.120;2024-02-15T01:47:54;26.50;;;15.60;;
19043;SDS011;9654;52.302;8.120;2024-02-15T01:50:22;28.80;;;15.20;;
19043;SDS011;9654;52.302;8.120;2024-02-15T01:52:51;26.50;;;16.70;;
19043;SDS011;9654;52.302;8.120;2024-02-15T01:55:22;28.37;;;16.83;;
19043;SDS011;9654;52.302;8.120;2024-02-15T01:57:49;29.20;;;15.37;;
19043;SDS011;9654;52.302;8.120;2024-02-15T02:00:17;29.00;;;15.93;;
19043;SDS011;9654;52.302;8.120;2024-02-15T02:02:45;30.07;;;16.03;;
19043;SDS011;9654;52.302;8.120;2024-02-15T02:05:13;26.60;;;15.27;;
19043;SDS011;9654;52.302;8.120;2024-02-15T02:07:42;29.60;;;16.23;;
19043;SDS011;9654;52.302;8.120;2024-02-15T02:10:08;31.87;;;17.47;;
19043;SDS011;9654;52.302;8.120;2024-02-15T02:12:37;26.93;;;16.40;;
19043;SDS011;9654;52.302;8.120;2024-02-15T02:15:05;31.30;;;16.00;;
19043;SDS011;9654;52.302;8.120;2024-02-15T02:17:33;27.23;;;15.67;;
19043;SDS011;9654;52.302;8.120;2024-02-15T02:20:00;28.53;;;15.93;;
19043;SDS011;9654;52.302;8.120;2024-02-15T02:22:33;26.40;;;15.67;;
19043;SDS011;9654;52.302;8.120;2024-02-15T02:25:03;26.73;;;14.07;;
19043;SDS011;9654;52.302;8.120;2024-02-15T02:27:33;22.57;;;14.10;;
19043;SDS011;9654;52.302;8.120;2024-02-15T02:30:02;26.23;;;14.43;;
19043;SDS011;9654;52.302;8.120;2024-02-15T02:32:32;27.57;;;15.60;;
19043;SDS011;9654;52.302;8.120;2024-02-15T02:35:01;24.60;;;13.63;;
19043;SDS011;9654;52.302;8.120;2024-02-15T02:37:28;29.43;;;15.00;;
19043;SDS011;9654;52.302;8.120;2024-02-15T02:39:55;29.77;;;14.10;;
19043;SDS011;9654;52.302;8.120;2024-02-15T02:42:23;25.47;;;13.30;;
19043;SDS011;9654;52.302;8.120;2024-02-15T02:44:50;25.90;;;13.87;;
19043;SDS011;9654;52.302;8.120;2024-02-15T02:47:17;27.03;;;13.83;;
19043;SDS011;9654;52.302;8.120;2024-02-15T02:49:44;27.07;;;14.07;;
19043;SDS011;9654;52.302;8.120;2024-02-15T02:52:11;23.73;;;13.13;;
19043;SDS011;9654;52.302;8.120;2024-02-15T02:54:38;24.77;;;12.73;;
19043;SDS011;9654;52.302;8.120;2024-02-15T02:57:06;25.33;;;13.27;;
19043;SDS011;9654;52.302;8.120;2024-02-15T02:59:34;20.73;;;11.60;;
19043;SDS011;9654;52.302;8.120;2024-02-15T03:02:04;20.53;;;11.20;;
19043;SDS011;9654;52.302;8.120;2024-02-15T03:04:33;21.87;;;12.47;;
19043;SDS011;9654;52.302;8.120;2024-02-15T03:07:00;20.40;;;11.70;;
19043;SDS011;9654;52.302;8.120;2024-02-15T03:09:26;20.93;;;12.80;;
19043;SDS011;9654;52.302;8.120;2024-02-15T03:11:54;22.30;;;12.33;;
19043;SDS011;9654;52.302;8.120;2024-02-15T03:14:22;23.57;;;13.03;;
19043;SDS011;9654;52.302;8.120;2024-02-15T03:16:51;23.90;;;13.73;;
19043;SDS011;9654;52.302;8.120;2024-02-15T03:19:20;25.37;;;13.83;;
19043;SDS011;9654;52.302;8.120;2024-02-15T03:21:48;27.87;;;15.10;;
19043;SDS011;9654;52.302;8.120;2024-02-15T03:24:15;25.73;;;14.73;;
19043;SDS011;9654;52.302;8.120;2024-02-15T03:26:42;29.47;;;15.23;;
19043;SDS011;9654;52.302;8.120;2024-02-15T03:29:09;32.13;;;15.03;;
19043;SDS011;9654;52.302;8.120;2024-02-15T03:31:36;31.07;;;16.20;;
19043;SDS011;9654;52.302;8.120;2024-02-15T03:34:04;28.87;;;16.10;;
19043;SDS011;9654;52.302;8.120;2024-02-15T03:36:31;33.60;;;16.23;;
19043;SDS011;9654;52.302;8.120;2024-02-15T03:38:59;33.77;;;15.23;;
19043;SDS011;9654;52.302;8.120;2024-02-15T03:41:27;39.20;;;18.10;;
19043;SDS011;9654;52.302;8.120;2024-02-15T03:43:56;35.70;;;17.67;;
19043;SDS011;9654;52.302;8.120;2024-02-15T03:46:24;36.37;;;18.27;;
19043;SDS011;9654;52.302;8.120;2024-02-15T03:48:51;33.17;;;17.67;;
19043;SDS011;9654;52.302;8.120;2024-02-15T03:51:20;40.30;;;19.77;;
19043;SDS011;9654;52.302;8.120;2024-02-15T03:53:49;43.53;;;20.53;;
19043;SDS011;9654;52.302;8.120;2024-02-15T03:56:17;43.63;;;21.23;;
19043;SDS011;9654;52.302;8.120;2024-02-15T03:58:44;49.70;;;22.00;;
19043;SDS011;9654;52.302;8.120;2024-02-15T04:01:11;55.90;;;23.43;;
19043;SDS011;9654;52.302;8.120;2024-02-15T04:03:40;62.50;;;25.07;;
19043;SDS011;9654;52.302;8.120;2024-02-15T04:06:07;54.37;;;22.90;;
19043;SDS011;9654;52.302;8.120;2024-02-15T04:08:35;53.60;;;22.33;;
19043;SDS011;9654;52.302;8.120;2024-02-15T04:11:04;45.13;;;22.43;;
19043;SDS011;9654;52.302;8.120;2024-02-15T04:13:32;51.20;;;22.77;;
19043;SDS011;9654;52.302;8.120;2024-02-15T04:15:59;48.57;;;23.13;;
19043;SDS011;9654;52.302;8.120;2024-02-15T04:18:26;45.00;;;22.33;;
19043;SDS011;9654;52.302;8.120;2024-02-15T04:20:57;52.77;;;25.43;;
19043;SDS011;9654;52.302;8.120;2024-02-15T04:23:24;54.00;;;24.70;;
19043;SDS011;9654;52.302;8.120;2024-02-15T04:25:52;52.30;;;27.13;;
19043;SDS011;9654;52.302;8.120;2024-02-15T04:28:19;42.37;;;21.83;;
19043;SDS011;9654;52.302;8.120;2024-02-15T04:30:46;45.60;;;22.13;;
19043;SDS011;9654;52.302;8.120;2024-02-15T04:33:13;64.83;;;30.93;;
19043;SDS011;9654;52.302;8.120;2024-02-15T04:35:40;57.80;;;26.30;;
19043;SDS011;9654;52.302;8.120;2024-02-15T04:38:08;100.53;;;44.53;;
19043;SDS011;9654;52.302;8.120;2024-02-15T04:40:35;65.47;;;31.30;;
19043;SDS011;9654;52.302;8.120;2024-02-15T04:43:04;100.37;;;40.70;;
19043;SDS011;9654;52.302;8.120;2024-02-15T04:45:31;70.43;;;32.17;;
19043;SDS011;9654;52.302;8.120;2024-02-15T04:47:58;78.93;;;31.67;;
19043;SDS011;9654;52.302;8.120;2024-02-15T04:50:27;65.83;;;30.63;;
19043;SDS011;9654;52.302;8.120;2024-02-15T04:52:54;65.20;;;32.00;;
19043;SDS011;9654;52.302;8.120;2024-02-15T04:55:21;60.03;;;30.80;;
19043;SDS011;9654;52.302;8.120;2024-02-15T04:57:48;47.53;;;25.43;;
19043;SDS011;9654;52.302;8.120;2024-02-15T05:00:21;57.50;;;28.63;;
19043;SDS011;9654;52.302;8.120;2024-02-15T05:02:50;55.50;;;28.13;;
19043;SDS011;9654;52.302;8.120;2024-02-15T05:05:18;60.50;;;31.67;;
19043;SDS011;9654;52.302;8.120;2024-02-15T05:07:45;55.77;;;28.33;;
19043;SDS011;9654;52.302;8.120;2024-02-15T05:10:14;64.27;;;29.77;;
19043;SDS011;9654;52.302;8.120;2024-02-15T05:12:42;75.93;;;35.67;;
19043;SDS011;9654;52.302;8.120;2024-02-15T05:15:09;70.80;;;32.33;;
19043;SDS011;9654;52.302;8.120;2024-02-15T05:17:38;91.80;;;44.30;;
19043;SDS011;9654;52.302;8.120;2024-02-15T05:20:07;71.50;;;34.80;;
19043;SDS011;9654;52.302;8.120;2024-02-15T05:22:37;106.80;;;47.00;;
19043;SDS011;9654;52.302;8.120;2024-02-15T05:25:05;95.90;;;41.43;;
19043;SDS011;9654;52.302;8.120;2024-02-15T05:27:33;97.00;;;42.63;;
19043;SDS011;9654;52.302;8.120;2024-02-15T05:30:02;120.40;;;51.43;;
19043;SDS011;9654;52.302;8.120;2024-02-15T05:32:32;124.23;;;53.10;;
19043;SDS011;9654;52.302;8.120;2024-02-15T05:35:01;170.30;;;67.17;;
19043;SDS011;9654;52.302;8.120;2024-02-15T05:37:28;166.63;;;66.60;;
19043;SDS011;9654;52.302;8.120;2024-02-15T05:39:55;124.70;;;50.27;;
19043;SDS011;9654;52.302;8.120;2024-02-15T05:42:22;229.13;;;90.37;;
19043;SDS011;9654;52.302;8.120;2024-02-15T05:44:49;157.43;;;66.03;;
19043;SDS011;9654;52.302;8.120;2024-02-15T05:47:16;117.77;;;48.53;;
19043;SDS011;9654;52.302;8.120;2024-02-15T05:49:43;160.73;;;61.33;;
19043;SDS011;9654;52.302;8.120;2024-02-15T05:52:13;155.67;;;69.53;;
19043;SDS011;9654;52.302;8.120;2024-02-15T05:54:40;115.17;;;47.17;;
19043;SDS011;9654;52.302;8.120;2024-02-15T05:57:07;101.23;;;44.20;;
19043;SDS011;9654;52.302;8.120;2024-02-15T05:59:34;101.83;;;42.30;;
19043;SDS011;9654;52.302;8.120;2024-02-15T06:02:01;105.90;;;46.10;;
19043;SDS011;9654;52.302;8.120;2024-02-15T06:04:28;106.00;;;47.43;;
19043;SDS011;9654;52.302;8.120;2024-02-15T06:06:55;91.57;;;40.93;;
19043;SDS011;9654;52.302;8.120;2024-02-15T06:09:27;92.90;;;39.17;;
19043;SDS011;9654;52.302;8.120;2024-02-15T06:11:55;82.73;;;37.27;;
19043;SDS011;9654;52.302;8.120;2024-02-15T06:14:23;80.00;;;36.13;;
19043;SDS011;9654;52.302;8.120;2024-02-15T06:16:50;71.30;;;35.23;;
19043;SDS011;9654;52.302;8.120;2024-02-15T06:19:20;74.63;;;33.60;;
19043;SDS011;9654;52.302;8.120;2024-02-15T06:21:47;80.73;;;34.63;;
19043;SDS011;9654;52.302;8.120;2024-02-15T06:24:14;79.43;;;34.13;;
19043;SDS011;9654;52.302;8.120;2024-02-15T06:26:43;84.23;;;35.40;;
19043;SDS011;9654;52.302;8.120;2024-02-15T06:29:10;82.93;;;34.57;;
19043;SDS011;9654;52.302;8.120;2024-02-15T06:31:55;81.30;;;35.37;;
19043;SDS011;9654;52.302;8.120;2024-02-15T06:34:39;72.77;;;33.80;;
19043;SDS011;9654;52.302;8.120;2024-02-15T06:37:34;76.47;;;33.70;;
19043;SDS011;9654;52.302;8.120;2024-02-15T06:40:19;80.53;;;33.83;;
19043;SDS011;9654;52.302;8.120;2024-02-15T06:42:47;73.63;;;32.97;;
19043;SDS011;9654;52.302;8.120;2024-02-15T06:45:15;74.53;;;31.80;;
19043;SDS011;9654;52.302;8.120;2024-02-15T06:47:43;77.07;;;31.90;;
19043;SDS011;9654;52.302;8.120;2024-02-15T06:50:10;64.77;;;29.20;;
19043;SDS011;9654;52.302;8.120;2024-02-15T06:52:38;68.20;;;29.33;;
19043;SDS011;9654;52.302;8.120;2024-02-15T06:55:06;67.67;;;29.10;;
19043;SDS011;9654;52.302;8.120;2024-02-15T06:57:34;62.33;;;28.13;;
19043;SDS011;9654;52.302;8.120;2024-02-15T07:00:03;63.73;;;29.77;;
19043;SDS011;9654;52.302;8.120;2024-02-15T07:02:34;62.17;;;29.17;;
19043;SDS011;9654;52.302;8.120;2024-02-15T07:05:01;63.17;;;30.07;;
19043;SDS011;9654;52.302;8.120;2024-02-15T07:07:29;64.60;;;29.93;;
19043;SDS011;9654;52.302;8.120;2024-02-15T07:09:56;62.23;;;28.80;;
19043;SDS011;9654;52.302;8.120;2024-02-15T07:12:23;59.70;;;28.20;;
19043;SDS011;9654;52.302;8.120;2024-02-15T07:14:50;60.27;;;29.67;;
19043;SDS011;9654;52.302;8.120;2024-02-15T07:17:19;55.13;;;27.53;;
19043;SDS011;9654;52.302;8.120;2024-02-15T07:19:45;62.80;;;28.70;;
19043;SDS011;9654;52.302;8.120;2024-02-15T07:22:14;50.20;;;27.93;;
19043;SDS011;9654;52.302;8.120;2024-02-15T07:24:41;61.00;;;27.57;;
19043;SDS011;9654;52.302;8.120;2024-02-15T07:27:08;56.77;;;28.63;;
19043;SDS011;9654;52.302;8.120;2024-02-15T07:29:36;52.80;;;27.40;;
19043;SDS011;9654;52.302;8.120;2024-02-15T07:32:03;51.97;;;27.03;;
19043;SDS011;9654;52.302;8.120;2024-02-15T07:34:32;48.80;;;25.37;;
19043;SDS011;9654;52.302;8.120;2024-02-15T07:37:01;49.90;;;25.40;;
19043;SDS011;9654;52.302;8.120;2024-02-15T07:39:29;51.50;;;24.37;;
19043;SDS011;9654;52.302;8.120;2024-02-15T07:41:56;44.97;;;25.30;;
19043;SDS011;9654;52.302;8.120;2024-02-15T07:44:23;46.53;;;24.57;;
19043;SDS011;9654;52.302;8.120;2024-02-15T07:46:50;42.27;;;23.03;;
19043;SDS011;9654;52.302;8.120;2024-02-15T07:49:17;40.30;;;21.83;;
19043;SDS011;9654;52.302;8.120;2024-02-15T07:51:45;37.03;;;21.07;;
19043;SDS011;9654;52.302;8.120;2024-02-15T07:54:17;40.23;;;22.50;;
19043;SDS011;9654;52.302;8.120;2024-02-15T07:56:46;43.53;;;20.70;;
19043;SDS011;9654;52.302;8.120;2024-02-15T07:59:13;38.47;;;20.53;;
19043;SDS011;9654;52.302;8.120;2024-02-15T08:01:41;31.87;;;17.97;;
19043;SDS011;9654;52.302;8.120;2024-02-15T08:04:08;33.03;;;18.73;;
19043;SDS011;9654;52.302;8.120;2024-02-15T08:06:35;33.97;;;18.20;;
19043;SDS011;9654;52.302;8.120;2024-02-15T08:09:05;30.27;;;17.77;;
19043;SDS011;9654;52.302;8.120;2024-02-15T08:11:31;31.80;;;18.37;;
19043;SDS011;9654;52.302;8.120;2024-02-15T08:13:59;31.67;;;18.13;;
19043;SDS011;9654;52.302;8.120;2024-02-15T08:16:26;31.47;;;16.73;;
19043;SDS011;9654;52.302;8.120;2024-02-15T08:18:53;35.37;;;16.80;;
19043;SDS011;9654;52.302;8.120;2024-02-15T08:21:24;26.93;;;16.10;;
19043;SDS011;9654;52.302;8.120;2024-02-15T08:23:52;25.53;;;15.37;;
19043;SDS011;9654;52.302;8.120;2024-02-15T08:26:21;25.80;;;15.27;;
19043;SDS011;9654;52.302;8.120;2024-02-15T08:28:48;28.50;;;14.90;;
19043;SDS011;9654;52.302;8.120;2024-02-15T08:31:15;28.03;;;15.63;;
19043;SDS011;9654;52.302;8.120;2024-02-15T08:33:43;24.50;;;14.90;;
19043;SDS011;9654;52.302;8.120;2024-02-15T08:36:11;27.53;;;15.90;;
19043;SDS011;9654;52.302;8.120;2024-02-15T08:38:38;25.20;;;14.97;;
19043;SDS011;9654;52.302;8.120;2024-02-15T08:41:06;21.30;;;14.00;;
19043;SDS011;9654;52.302;8.120;2024-02-15T08:43:37;21.20;;;14.03;;
19043;SDS011;9654;52.302;8.120;2024-02-15T08:46:06;27.70;;;15.20;;
19043;SDS011;9654;52.302;8.120;2024-02-15T08:48:33;24.07;;;14.53;;
19043;SDS011;9654;52.302;8.120;2024-02-15T08:51:00;21.83;;;13.87;;
19043;SDS011;9654;52.302;8.120;2024-02-15T08:53:27;32.47;;;15.70;;
19043;SDS011;9654;52.302;8.120;2024-02-15T08:55:54;25.00;;;14.10;;
19043;SDS011;9654;52.302;8.120;2024-02-15T08:58:21;24.03;;;15.87;;
19043;SDS011;9654;52.302;8.120;2024-02-15T09:00:49;23.73;;;14.73;;
19043;SDS011;9654;52.302;8.120;2024-02-15T09:03:16;24.20;;;13.60;;
19043;SDS011;9654;52.302;8.120;2024-02-15T09:05:43;21.57;;;12.43;;
19043;SDS011;9654;52.302;8.120;2024-02-15T09:08:10;20.63;;;11.70;;
19043;SDS011;9654;52.302;8.120;2024-02-15T09:10:37;19.00;;;12.17;;
19043;SDS011;9654;52.302;8.120;2024-02-15T09:13:04;16.03;;;11.97;;
19043;SDS011;9654;52.302;8.120;2024-02-15T09:15:32;16.80;;;10.27;;
19043;SDS011;9654;52.302;8.120;2024-02-15T09:18:00;17.30;;;8.53;;
19043;SDS011;9654;52.302;8.120;2024-02-15T09:20:27;17.33;;;10.53;;
19043;SDS011;9654;52.302;8.120;2024-02-15T09:22:56;19.07;;;9.87;;
19043;SDS011;9654;52.302;8.120;2024-02-15T09:25:24;14.77;;;8.37;;
19043;SDS011;9654;52.302;8.120;2024-02-15T09:27:51;21.43;;;9.57;;
19043;SDS011;9654;52.302;8.120;2024-02-15T09:30:19;21.63;;;8.77;;
19043;SDS011;9654;52.302;8.120;2024-02-15T09:32:49;12.60;;;6.67;;
19043;SDS011;9654;52.302;8.120;2024-02-15T09:35:18;14.20;;;6.77;;
19043;SDS011;9654;52.302;8.120;2024-02-15T09:37:46;13.30;;;8.10;;
19043;SDS011;9654;52.302;8.120;2024-02-15T09:40:14;15.27;;;7.07;;
19043;SDS011;9654;52.302;8.120;2024-02-15T09:42:43;9.77;;;7.37;;
19043;SDS011;9654;52.302;8.120;2024-02-15T09:45:10;12.53;;;7.90;;
19043;SDS011;9654;52.302;8.120;2024-02-15T09:47:39;14.33;;;7.57;;
19043;SDS011;9654;52.302;8.120;2024-02-15T09:50:08;10.10;;;6.47;;
19043;SDS011;9654;52.302;8.120;2024-02-15T09:52:37;11.40;;;7.57;;
19043;SDS011;9654;52.302;8.120;2024-02-15T09:55:05;11.00;;;6.63;;
19043;SDS011;9654;52.302;8.120;2024-02-15T09:57:35;10.47;;;6.27;;
19043;SDS011;9654;52.302;8.120;2024-02-15T10:00:03;9.47;;;5.00;;
19043;SDS011;9654;52.302;8.120;2024-02-15T10:02:32;10.10;;;4.73;;
19043;SDS011;9654;52.302;8.120;2024-02-15T10:05:01;11.67;;;6.20;;
19043;SDS011;9654;52.302;8.120;2024-02-15T10:07:29;7.40;;;5.87;;
19043;SDS011;9654;52.302;8.120;2024-02-15T10:09:57;7.87;;;5.70;;
19043;SDS011;9654;52.302;8.120;2024-02-15T10:12:42;10.23;;;6.23;;
19043;SDS011;9654;52.302;8.120;2024-02-15T10:15:09;20.13;;;11.93;;
19043;SDS011;9654;52.302;8.120;2024-02-15T10:17:36;18.27;;;9.73;;
19043;SDS011;9654;52.302;8.120;2024-02-15T10:20:03;11.53;;;6.40;;
19043;SDS011;9654;52.302;8.120;2024-02-15T10:22:31;11.20;;;6.43;;
19043;SDS011;9654;52.302;8.120;2024-02-15T10:25:11;6.63;;;5.50;;
19043;SDS011;9654;52.302;8.120;2024-02-15T10:27:39;7.30;;;4.90;;
19043;SDS011;9654;52.302;8.120;2024-02-15T10:30:15;8.53;;;5.23;;
19043;SDS011;9654;52.302;8.120;2024-02-15T10:32:44;14.97;;;8.90;;
19043;SDS011;9654;52.302;8.120;2024-02-15T10:35:15;10.00;;;7.17;;
19043;SDS011;9654;52.302;8.120;2024-02-15T10:37:45;15.80;;;9.57;;
19043;SDS011;9654;52.302;8.120;2024-02-15T10:40:16;17.57;;;8.97;;
19043;SDS011;9654;52.302;8.120;2024-02-15T10:42:44;14.90;;;9.80;;
19043;SDS011;9654;52.302;8.120;2024-02-15T10:45:12;14.13;;;7.53;;
19043;SDS011;9654;52.302;8.120;2024-02-15T10:47:43;9.33;;;6.97;;
19043;SDS011;9654;52.302;8.120;2024-02-15T10:50:10;8.67;;;6.40;;
19043;SDS011;9654;52.302;8.120;2024-02-15T10:52:40;10.57;;;6.57;;
19043;SDS011;9654;52.302;8.120;2024-02-15T10:55:15;10.90;;;7.70;;
19043;SDS011;9654;52.302;8.120;2024-02-15T10:57:53;10.03;;;5.97;;
19043;SDS011;9654;52.302;8.120;2024-02-15T11:00:28;11.70;;;9.47;;
19043;SDS011;9654;52.302;8.120;2024-02-15T11:03:00;10.07;;;7.83;;
19043;SDS011;9654;52.302;8.120;2024-02-15T11:05:31;10.93;;;6.83;;
19043;SDS011;9654;52.302;8.120;2024-02-15T11:08:01;11.00;;;7.47;;
19043;SDS011;9654;52.302;8.120;2024-02-15T11:10:32;9.40;;;6.37;;
19043;SDS011;9654;52.302;8.120;2024-02-15T11:13:00;11.87;;;7.70;;
19043;SDS011;9654;52.302;8.120;2024-02-15T11:15:40;12.13;;;9.40;;
19043;SDS011;9654;52.302;8.120;2024-02-15T11:18:10;10.83;;;6.57;;
19043;SDS011;9654;52.302;8.120;2024-02-15T11:20:46;12.87;;;10.13;;
19043;SDS011;9654;52.302;8.120;2024-02-15T11:23:16;12.47;;;8.30;;
19043;SDS011;9654;52.302;8.120;2024-02-15T11:25:51;9.83;;;6.03;;
19043;SDS011;9654;52.302;8.120;2024-02-15T11:31:03;11.33;;;7.77;;
19043;SDS011;9654;52.302;8.120;2024-02-15T11:33:34;11.27;;;9.20;;
19043;SDS011;9654;52.302;8.120;2024-02-15T11:36:04;7.93;;;5.40;;
19043;SDS011;9654;52.302;8.120;2024-02-15T11:38:32;8.57;;;5.37;;
19043;SDS011;9654;52.302;8.120;2024-02-15T11:41:01;9.63;;;7.70;;
19043;SDS011;9654;52.302;8.120;2024-02-15T11:46:23;8.03;;;5.40;;
19043;SDS011;9654;52.302;8.120;2024-02-15T11:48:54;9.20;;;4.53;;
19043;SDS011;9654;52.302;8.120;2024-02-15T11:51:28;6.37;;;4.53;;
19043;SDS011;9654;52.302;8.120;2024-02-15T11:54:02;11.07;;;5.27;;
19043;SDS011;9654;52.302;8.120;2024-02-15T11:56:33;6.13;;;5.43;;
19043;SDS011;9654;52.302;8.120;2024-02-15T11:59:19;7.70;;;5.00;;
19043;SDS011;9654;52.302;8.120;2024-02-15T12:01:56;8.40;;;6.90;;
19043;SDS011;9654;52.302;8.120;2024-02-15T12:04:42;6.27;;;3.97;;
19043;SDS011;9654;52.302;8.120;2024-02-15T12:07:27;6.73;;;4.73;;
19043;SDS011;9654;52.302;8.120;2024-02-15T12:10:15;11.43;;;4.63;;
19043;SDS011;9654;52.302;8.120;2024-02-15T12:13:02;6.57;;;3.63;;
19043;SDS011;9654;52.302;8.120;2024-02-15T12:15:56;4.53;;;3.03;;
19043;SDS011;9654;52.302;8.120;2024-02-15T12:18:41;10.13;;;4.33;;
19043;SDS011;9654;52.302;8.120;2024-02-15T12:21:09;6.77;;;3.60;;
19043;SDS011;9654;52.302;8.120;2024-02-15T12:23:41;11.67;;;6.80;;
19043;SDS011;9654;52.302;8.120;2024-02-15T12:26:08;13.63;;;8.00;;
19043;SDS011;9654;52.302;8.120;2024-02-15T12:28:37;6.87;;;2.77;;
19043;SDS011;9654;52.302;8.120;2024-02-15T12:31:04;7.80;;;3.90;;
19043;SDS011;9654;52.302;8.120;2024-02-15T12:33:34;7.03;;;2.57;;
19043;SDS011;9654;52.302;8.120;2024-02-15T12:36:05;5.30;;;2.63;;
19043;SDS011;9654;52.302;8.120;2024-02-15T12:38:33;7.97;;;3.23;;
19043;SDS011;9654;52.302;8.120;2024-02-15T12:41:02;6.93;;;2.60;;
19043;SDS011;9654;52.302;8.120;2024-02-15T12:43:30;5.97;;;2.70;;
19043;SDS011;9654;52.302;8.120;2024-02-15T12:45:59;5.37;;;2.70;;
19043;SDS011;9654;52.302;8.120;2024-02-15T12:48:26;4.60;;;2.40;;
19043;SDS011;9654;52.302;8.120;2024-02-15T12:50:53;4.87;;;2.43;;
19043;SDS011;9654;52.302;8.120;2024-02-15T12:53:20;6.97;;;2.73;;
19043;SDS011;9654;52.302;8.120;2024-02-15T12:55:52;9.20;;;3.00;;
19043;SDS011;9654;52.302;8.120;2024-02-15T12:58:21;5.67;;;2.00;;
19043;SDS011;9654;52.302;8.120;2024-02-15T13:00:49;5.83;;;2.10;;
19043;SDS011;9654;52.302;8.120;2024-02-15T13:03:22;8.40;;;2.47;;
19043;SDS011;9654;52.302;8.120;2024-02-15T13:05:49;10.33;;;2.73;;
19043;SDS011;9654;52.302;8.120;2024-02-15T13:08:16;4.90;;;2.70;;
19043;SDS011;9654;52.302;8.120;2024-02-15T13:10:43;6.67;;;2.83;;
19043;SDS011;9654;52.302;8.120;2024-02-15T13:13:10;7.80;;;2.93;;
19043;SDS011;9654;52.302;8.120;2024-02-15T13:15:39;6.50;;;2.80;;
19043;SDS011;9654;52.302;8.120;2024-02-15T13:18:06;5.37;;;2.63;;
19043;SDS011;9654;52.302;8.120;2024-02-15T13:20:36;4.40;;;2.53;;
19043;SDS011;9654;52.302;8.120;2024-02-15T13:23:03;7.40;;;5.17;;
19043;SDS011;9654;52.302;8.120;2024-02-15T13:25:34;7.33;;;2.80;;
19043;SDS011;9654;52.302;8.120;2024-02-15T13:28:02;6.60;;;1.97;;
19043;SDS011;9654;52.302;8.120;2024-02-15T13:30:30;4.10;;;2.17;;
19043;SDS011;9654;52.302;8.120;2024-02-15T13:32:57;4.50;;;2.33;;
19043;SDS011;9654;52.302;8.120;2024-02-15T13:35:24;3.10;;;2.00;;
19043;SDS011;9654;52.302;8.120;2024-02-15T13:37:53;5.97;;;1.97;;
19043;SDS011;9654;52.302;8.120;2024-02-15T13:40:23;7.93;;;2.53;;
19043;SDS011;9654;52.302;8.120;2024-02-15T13:42:51;10.00;;;1.73;;
19043;SDS011;9654;52.302;8.120;2024-02-15T13:45:21;8.40;;;3.30;;
19043;SDS011;9654;52.302;8.120;2024-02-15T13:47:49;3.60;;;2.27;;
19043;SDS011;9654;52.302;8.120;2024-02-15T13:50:18;7.33;;;2.23;;
19043;SDS011;9654;52.302;8.120;2024-02-15T13:52:45;9.60;;;2.13;;
19043;SDS011;9654;52.302;8.120;2024-02-15T13:55:14;6.53;;;2.00;;
19043;SDS011;9654;52.302;8.120;2024-02-15T13:57:43;4.27;;;2.00;;
19043;SDS011;9654;52.302;8.120;2024-02-15T14:00:12;4.97;;;2.27;;
19043;SDS011;9654;52.302;8.120;2024-02-15T14:02:46;2.47;;;2.00;;
19043;SDS011;9654;52.302;8.120;2024-02-15T14:05:14;4.00;;;2.23;;
19043;SDS011;9654;52.302;8.120;2024-02-15T14:07:45;4.30;;;2.63;;
19043;SDS011;9654;52.302;8.120;2024-02-15T14:10:14;5.03;;;2.47;;
19043;SDS011;9654;52.302;8.120;2024-02-15T14:12:43;8.47;;;2.23;;
19043;SDS011;9654;52.302;8.120;2024-02-15T14:15:10;7.37;;;3.93;;
19043;SDS011;9654;52.302;8.120;2024-02-15T14:17:38;6.10;;;2.33;;
19043;SDS011;9654;52.302;8.120;2024-02-15T14:20:05;3.23;;;2.27;;
19043;SDS011;9654;52.302;8.120;2024-02-15T14:22:38;8.43;;;3.23;;
19043;SDS011;9654;52.302;8.120;2024-02-15T14:25:05;6.60;;;3.10;;
19043;SDS011;9654;52.302;8.120;2024-02-15T14:27:34;4.53;;;2.17;;
19043;SDS011;9654;52.302;8.120;2024-02-15T14:30:02;3.57;;;2.40;;
19043;SDS011;9654;52.302;8.120;2024-02-15T14:32:48;5.53;;;2.27;;
19043;SDS011;9654;52.302;8.120;2024-02-15T14:35:29;9.23;;;3.37;;
19043;SDS011;9654;52.302;8.120;2024-02-15T14:38:00;6.03;;;2.30;;
19043;SDS011;9654;52.302;8.120;2024-02-15T14:40:30;7.17;;;2.50;;
19043;SDS011;9654;52.302;8.120;2024-02-15T14:42:59;5.20;;;2.93;;
19043;SDS011;9654;52.302;8.120;2024-02-15T14:45:26;3.87;;;2.13;;
19043;SDS011;9654;52.302;8.120;2024-02-15T14:47:53;5.57;;;3.30;;
19043;SDS011;9654;52.302;8.120;2024-02-15T14:50:20;44.83;;;20.13;;
19043;SDS011;9654;52.302;8.120;2024-02-15T14:52:48;7.87;;;3.20;;
19043;SDS011;9654;52.302;8.120;2024-02-15T14:55:17;4.27;;;2.10;;
19043;SDS011;9654;52.302;8.120;2024-02-15T14:57:44;3.53;;;1.97;;